sensor_id;sensor_type;location;lat;lon;timestamp;pressure;altitude;pressure_sealevel;temperature;humidity
69247;BME280;56358;56.328;43.992;2023-01-26T00:01:34;101194.94;;;-3.46;75.70
69247;BME280;56358;56.328;43.992;2023-01-26T00:03:35;101199.28;;;-3.44;75.50
69247;BME280;56358;56.328;43.992;2023-01-26T00:05:36;101186.19;;;-3.44;75.70
69247;BME280;56358;56.328;43.992;2023-01-26T00:07:37;101180.91;;;-3.41;75.54
69247;BME280;56358;56.328;43.992;2023-01-26T00:09:41;101175.69;;;-3.42;75.64
69247;BME280;56358;56.328;43.992;2023-01-26T00:11:42;101177.44;;;-3.44;75.71
69247;BME280;56358;56.328;43.992;2023-01-26T00:13:43;101168.69;;;-3.43;76.00
69247;BME280;56358;56.328;43.992;2023-01-26T00:15:44;101160.81;;;-3.43;76.06
69247;BME280;56358;56.328;43.992;2023-01-26T00:17:45;101156.56;;;-3.54;76.13
69247;BME280;56358;56.328;43.992;2023-01-26T00:19:45;101160.81;;;-3.40;75.71
69247;BME280;56358;56.328;43.992;2023-01-26T00:21:46;101115.59;;;-3.64;75.98
69247;BME280;56358;56.328;43.992;2023-01-26T00:23:47;101156.41;;;-3.37;76.10
69247;BME280;56358;56.328;43.992;2023-01-26T00:25:48;101156.47;;;-3.44;76.20
69247;BME280;56358;56.328;43.992;2023-01-26T00:27:49;101152.88;;;-3.34;76.35
69247;BME280;56358;56.328;43.992;2023-01-26T00:29:49;101157.25;;;-3.34;76.54
69247;BME280;56358;56.328;43.992;2023-01-26T00:31:50;101151.25;;;-3.47;76.68
69247;BME280;56358;56.328;43.992;2023-01-26T00:33:52;101157.19;;;-3.30;76.57
69247;BME280;56358;56.328;43.992;2023-01-26T00:35:53;101172.03;;;-3.27;76.60
69247;BME280;56358;56.328;43.992;2023-01-26T00:37:54;101148.41;;;-3.26;76.77
69247;BME280;56358;56.328;43.992;2023-01-26T00:39:55;101155.44;;;-3.28;76.67
69247;BME280;56358;56.328;43.992;2023-01-26T00:41:55;101158.88;;;-3.24;76.53
69247;BME280;56358;56.328;43.992;2023-01-26T00:44:13;101153.69;;;-3.29;76.87
69247;BME280;56358;56.328;43.992;2023-01-26T00:46:13;101153.69;;;-3.29;77.12
69247;BME280;56358;56.328;43.992;2023-01-26T00:48:14;101072.88;;;-3.77;77.24
69247;BME280;56358;56.328;43.992;2023-01-26T00:50:15;101151.94;;;-3.25;77.10
69247;BME280;56358;56.328;43.992;2023-01-26T00:52:16;101150.19;;;-3.26;77.21
69247;BME280;56358;56.328;43.992;2023-01-26T00:54:16;101148.44;;;-3.27;77.31
69247;BME280;56358;56.328;43.992;2023-01-26T00:56:17;101078.97;;;-3.72;77.19
69247;BME280;56358;56.328;43.992;2023-01-26T00:58:18;101157.16;;;-3.24;77.40
69247;BME280;56358;56.328;43.992;2023-01-26T01:00:18;101167.59;;;-3.21;77.51
69247;BME280;56358;56.328;43.992;2023-01-26T01:02:19;101161.47;;;-3.20;77.22
69247;BME280;56358;56.328;43.992;2023-01-26T01:04:20;101171.94;;;-3.18;77.46
69247;BME280;56358;56.328;43.992;2023-01-26T01:06:20;101167.56;;;-3.16;77.33
69247;BME280;56358;56.328;43.992;2023-01-26T01:08:21;101163.16;;;-3.12;77.16
69247;BME280;56358;56.328;43.992;2023-01-26T01:10:22;101158.81;;;-3.13;77.08
69247;BME280;56358;56.328;43.992;2023-01-26T01:12:23;101162.25;;;-3.10;77.03
69247;BME280;56358;56.328;43.992;2023-01-26T01:14:24;101151.78;;;-3.11;76.94
69247;BME280;56358;56.328;43.992;2023-01-26T01:16:25;101143.91;;;-3.11;77.29
69247;BME280;56358;56.328;43.992;2023-01-26T01:18:27;101149.97;;;-3.06;77.03
69247;BME280;56358;56.328;43.992;2023-01-26T01:20:28;101140.47;;;-3.16;76.88
69247;BME280;56358;56.328;43.992;2023-01-26T01:22:29;101142.13;;;-3.08;76.92
69247;BME280;56358;56.328;43.992;2023-01-26T01:24:29;101127.28;;;-3.09;77.06
69247;BME280;56358;56.328;43.992;2023-01-26T01:26:30;101128.09;;;-3.04;76.77
69247;BME280;56358;56.328;43.992;2023-01-26T01:28:32;101120.22;;;-3.04;76.95
69247;BME280;56358;56.328;43.992;2023-01-26T01:30:32;101051.59;;;-3.44;76.84
69247;BME280;56358;56.328;43.992;2023-01-26T01:32:34;101128.13;;;-3.05;77.05
69247;BME280;56358;56.328;43.992;2023-01-26T01:34:35;101119.34;;;-3.04;77.18
69247;BME280;56358;56.328;43.992;2023-01-26T01:36:36;101119.34;;;-3.03;77.13
69247;BME280;56358;56.328;43.992;2023-01-26T01:38:36;101105.38;;;-3.06;77.03
69247;BME280;56358;56.328;43.992;2023-01-26T01:40:42;101113.22;;;-3.05;77.05
69247;BME280;56358;56.328;43.992;2023-01-26T01:42:47;101113.19;;;-3.01;76.82
69247;BME280;56358;56.328;43.992;2023-01-26T01:47:26;101085.22;;;-3.01;77.12
69247;BME280;56358;56.328;43.992;2023-01-26T01:49:39;101100.09;;;-3.03;77.13
69247;BME280;56358;56.328;43.992;2023-01-26T01:52:21;101082.63;;;-3.03;77.09
69247;BME280;56358;56.328;43.992;2023-01-26T01:54:33;101073.03;;;-3.08;77.04
69247;BME280;56358;56.328;43.992;2023-01-26T01:56:39;101085.34;;;-3.12;77.12
69247;BME280;56358;56.328;43.992;2023-01-26T01:58:42;101059.91;;;-3.05;77.10
69247;BME280;56358;56.328;43.992;2023-01-26T02:00:43;101068.66;;;-3.06;77.13
69247;BME280;56358;56.328;43.992;2023-01-26T02:02:45;101059.94;;;-3.07;77.18
69247;BME280;56358;56.328;43.992;2023-01-26T02:05:42;101059.91;;;-3.05;77.08
69247;BME280;56358;56.328;43.992;2023-01-26T02:07:45;101058.13;;;-3.03;77.05
69247;BME280;56358;56.328;43.992;2023-01-26T02:09:46;101066.88;;;-3.06;77.06
69247;BME280;56358;56.328;43.992;2023-01-26T02:12:10;101036.38;;;-3.11;77.05
69247;BME280;56358;56.328;43.992;2023-01-26T02:14:13;100980.84;;;-3.46;77.05
69247;BME280;56358;56.328;43.992;2023-01-26T02:16:16;101058.13;;;-3.03;76.69
69247;BME280;56358;56.328;43.992;2023-01-26T02:18:17;101052.88;;;-3.03;76.90
69247;BME280;56358;56.328;43.992;2023-01-26T02:22:52;101065.97;;;-3.03;76.97
69247;BME280;56358;56.328;43.992;2023-01-26T02:24:58;101051.16;;;-3.06;76.76
69247;BME280;56358;56.328;43.992;2023-01-26T02:27:03;100978.16;;;-3.41;77.08
69247;BME280;56358;56.328;43.992;2023-01-26T02:29:07;101033.56;;;-2.99;76.65
69247;BME280;56358;56.328;43.992;2023-01-26T02:31:09;100974.66;;;-3.40;76.60
69247;BME280;56358;56.328;43.992;2023-01-26T02:33:20;101045.84;;;-3.01;76.78
69247;BME280;56358;56.328;43.992;2023-01-26T02:35:21;100998.94;;;-3.23;76.73
69247;BME280;56358;56.328;43.992;2023-01-26T02:37:22;101034.44;;;-2.97;76.59
69247;BME280;56358;56.328;43.992;2023-01-26T02:39:33;101030.88;;;-2.93;76.53
69247;BME280;56358;56.328;43.992;2023-01-26T02:41:38;101000.44;;;-3.05;76.34
69247;BME280;56358;56.328;43.992;2023-01-26T02:43:57;101033.56;;;-2.96;76.71
69247;BME280;56358;56.328;43.992;2023-01-26T02:45:58;101036.19;;;-2.96;76.48
69247;BME280;56358;56.328;43.992;2023-01-26T02:47:59;100950.13;;;-3.38;76.50
69247;BME280;56358;56.328;43.992;2023-01-26T02:50:04;100971.88;;;-3.26;76.59
69247;BME280;56358;56.328;43.992;2023-01-26T02:52:05;101014.31;;;-2.96;76.71
69247;BME280;56358;56.328;43.992;2023-01-26T02:54:05;101018.69;;;-2.97;76.63
69247;BME280;56358;56.328;43.992;2023-01-26T02:56:06;100946.63;;;-3.37;76.53
69247;BME280;56358;56.328;43.992;2023-01-26T02:58:07;101002.91;;;-2.94;76.53
69247;BME280;56358;56.328;43.992;2023-01-26T03:00:14;101004.63;;;-2.91;76.22
69247;BME280;56358;56.328;43.992;2023-01-26T03:02:15;101004.66;;;-2.94;76.27
69247;BME280;56358;56.328;43.992;2023-01-26T03:04:16;101013.44;;;-2.97;76.51
69247;BME280;56358;56.328;43.992;2023-01-26T03:06:17;101023.00;;;-2.93;76.41
69247;BME280;56358;56.328;43.992;2023-01-26T03:08:17;101009.09;;;-2.98;76.53
69247;BME280;56358;56.328;43.992;2023-01-26T03:10:18;101009.16;;;-3.04;76.66
69247;BME280;56358;56.328;43.992;2023-01-26T03:12:19;101000.34;;;-2.98;76.40
69247;BME280;56358;56.328;43.992;2023-01-26T03:14:19;101001.16;;;-2.93;76.28
69247;BME280;56358;56.328;43.992;2023-01-26T03:16:20;101032.66;;;-2.95;76.48
69247;BME280;56358;56.328;43.992;2023-01-26T03:18:22;100984.75;;;-3.11;76.55
69247;BME280;56358;56.328;43.992;2023-01-26T03:20:41;100996.81;;;-2.97;76.48
69247;BME280;56358;56.328;43.992;2023-01-26T03:23:00;100928.34;;;-3.41;76.31
69247;BME280;56358;56.328;43.992;2023-01-26T03:25:19;101008.09;;;-2.91;76.38
69247;BME280;56358;56.328;43.992;2023-01-26T03:27:44;101011.59;;;-2.90;76.29
69247;BME280;56358;56.328;43.992;2023-01-26T03:29:46;101001.13;;;-2.90;75.90
69247;BME280;56358;56.328;43.992;2023-01-26T03:31:46;101009.81;;;-2.88;76.17
69247;BME280;56358;56.328;43.992;2023-01-26T03:33:47;101002.00;;;-2.91;76.12
69247;BME280;56358;56.328;43.992;2023-01-26T03:35:51;101004.59;;;-2.90;75.93
69247;BME280;56358;56.328;43.992;2023-01-26T03:37:52;101019.47;;;-2.90;75.95
69247;BME280;56358;56.328;43.992;2023-01-26T03:39:53;100913.47;;;-3.41;76.05
69247;BME280;56358;56.328;43.992;2023-01-26T03:42:13;100986.22;;;-2.90;76.07
69247;BME280;56358;56.328;43.992;2023-01-26T03:44:33;100999.31;;;-2.88;75.88
69247;BME280;56358;56.328;43.992;2023-01-26T03:46:52;100967.06;;;-2.95;75.99
69247;BME280;56358;56.328;43.992;2023-01-26T03:49:11;100981.91;;;-2.94;76.11
69247;BME280;56358;56.328;43.992;2023-01-26T03:51:31;100888.16;;;-3.43;76.20
69247;BME280;56358;56.328;43.992;2023-01-26T03:53:50;101002.00;;;-2.91;76.33
69247;BME280;56358;56.328;43.992;2023-01-26T03:56:10;101002.84;;;-2.88;76.24
69247;BME280;56358;56.328;43.992;2023-01-26T03:58:24;100991.44;;;-2.85;76.21
69247;BME280;56358;56.328;43.992;2023-01-26T04:00:29;100996.63;;;-2.82;76.22
69247;BME280;56358;56.328;43.992;2023-01-26T04:02:30;100902.94;;;-3.36;75.86
69247;BME280;56358;56.328;43.992;2023-01-26T04:04:50;100922.09;;;-3.31;76.01
69247;BME280;56358;56.328;43.992;2023-01-26T04:07:09;100942.94;;;-3.20;75.89
69247;BME280;56358;56.328;43.992;2023-01-26T04:09:29;100997.47;;;-2.81;76.11
69247;BME280;56358;56.328;43.992;2023-01-26T04:11:30;100999.28;;;-2.83;76.07
69247;BME280;56358;56.328;43.992;2023-01-26T04:13:31;100920.22;;;-3.21;76.02
69247;BME280;56358;56.328;43.992;2023-01-26T04:15:50;100983.53;;;-2.83;76.17
69247;BME280;56358;56.328;43.992;2023-01-26T04:18:09;100967.09;;;-2.98;76.25
69247;BME280;56358;56.328;43.992;2023-01-26T04:20:28;100842.22;;;-3.69;76.18
69247;BME280;56358;56.328;43.992;2023-01-26T04:22:48;100874.25;;;-3.48;76.70
69247;BME280;56358;56.328;43.992;2023-01-26T04:24:48;100975.69;;;-2.88;76.89
69247;BME280;56358;56.328;43.992;2023-01-26T04:26:49;100982.66;;;-2.86;77.11
69247;BME280;56358;56.328;43.992;2023-01-26T04:28:50;100995.81;;;-2.87;77.45
69247;BME280;56358;56.328;43.992;2023-01-26T04:30:50;100921.22;;;-3.31;77.55
69247;BME280;56358;56.328;43.992;2023-01-26T04:32:51;101001.84;;;-2.80;77.66
69247;BME280;56358;56.328;43.992;2023-01-26T04:34:52;101014.09;;;-2.81;77.86
69247;BME280;56358;56.328;43.992;2023-01-26T04:36:52;101002.78;;;-2.84;78.23
69247;BME280;56358;56.328;43.992;2023-01-26T04:38:54;101011.41;;;-2.76;78.13
69247;BME280;56358;56.328;43.992;2023-01-26T04:40:54;100988.94;;;-2.97;77.97
69247;BME280;56358;56.328;43.992;2023-01-26T04:42:55;101022.75;;;-2.74;78.10
69247;BME280;56358;56.328;43.992;2023-01-26T04:44:56;101025.34;;;-2.71;78.36
69247;BME280;56358;56.328;43.992;2023-01-26T04:46:56;101032.28;;;-2.67;77.99
69247;BME280;56358;56.328;43.992;2023-01-26T04:48:57;100994.91;;;-2.84;78.25
69247;BME280;56358;56.328;43.992;2023-01-26T04:51:00;101036.56;;;-2.61;77.83
69247;BME280;56358;56.328;43.992;2023-01-26T04:53:01;101044.38;;;-2.57;77.84
69247;BME280;56358;56.328;43.992;2023-01-26T04:55:02;101019.16;;;-2.67;77.62
69247;BME280;56358;56.328;43.992;2023-01-26T04:57:03;101060.16;;;-2.58;77.74
69247;BME280;56358;56.328;43.992;2023-01-26T04:59:06;101037.50;;;-2.64;77.45
69247;BME280;56358;56.328;43.992;2023-01-26T05:01:07;101054.06;;;-2.60;77.56
69247;BME280;56358;56.328;43.992;2023-01-26T05:03:08;101040.03;;;-2.59;77.59
69247;BME280;56358;56.328;43.992;2023-01-26T05:05:09;101046.16;;;-2.57;77.62
69247;BME280;56358;56.328;43.992;2023-01-26T05:07:09;101029.66;;;-2.67;77.79
69247;BME280;56358;56.328;43.992;2023-01-26T05:09:10;101023.56;;;-2.69;77.86
69247;BME280;56358;56.328;43.992;2023-01-26T05:11:11;101042.63;;;-2.56;77.94
69247;BME280;56358;56.328;43.992;2023-01-26T05:13:12;101046.19;;;-2.60;77.55
69247;BME280;56358;56.328;43.992;2023-01-26T05:15:12;101042.66;;;-2.59;77.89
69247;BME280;56358;56.328;43.992;2023-01-26T05:17:13;100999.28;;;-2.83;78.14
69247;BME280;56358;56.328;43.992;2023-01-26T05:19:13;101047.00;;;-2.57;77.71
69247;BME280;56358;56.328;43.992;2023-01-26T05:21:14;101027.81;;;-2.62;77.77
69247;BME280;56358;56.328;43.992;2023-01-26T05:23:15;101044.38;;;-2.57;77.77
69247;BME280;56358;56.328;43.992;2023-01-26T05:25:16;101030.41;;;-2.59;77.99
69247;BME280;56358;56.328;43.992;2023-01-26T05:27:16;101049.69;;;-2.61;77.67
69247;BME280;56358;56.328;43.992;2023-01-26T05:29:23;101036.50;;;-2.57;77.74
69247;BME280;56358;56.328;43.992;2023-01-26T05:31:23;101054.03;;;-2.57;77.98
69247;BME280;56358;56.328;43.992;2023-01-26T05:33:24;101034.75;;;-2.58;77.66
69247;BME280;56358;56.328;43.992;2023-01-26T05:35:25;101031.31;;;-2.60;77.91
69247;BME280;56358;56.328;43.992;2023-01-26T05:37:27;101044.38;;;-2.57;77.80
69247;BME280;56358;56.328;43.992;2023-01-26T05:39:27;101038.28;;;-2.59;77.68
69247;BME280;56358;56.328;43.992;2023-01-26T05:41:28;101029.63;;;-2.65;77.69
69247;BME280;56358;56.328;43.992;2023-01-26T05:43:29;101035.66;;;-2.59;77.72
69247;BME280;56358;56.328;43.992;2023-01-26T05:45:30;101030.44;;;-2.60;77.95
69247;BME280;56358;56.328;43.992;2023-01-26T05:47:30;101021.69;;;-2.61;77.79
69247;BME280;56358;56.328;43.992;2023-01-26T05:49:31;101009.50;;;-2.65;77.79
69247;BME280;56358;56.328;43.992;2023-01-26T05:51:31;101021.69;;;-2.61;77.98
69247;BME280;56358;56.328;43.992;2023-01-26T05:53:32;101024.25;;;-2.56;77.87
69247;BME280;56358;56.328;43.992;2023-01-26T05:55:32;101031.22;;;-2.55;77.97
69247;BME280;56358;56.328;43.992;2023-01-26T05:57:33;101019.84;;;-2.54;77.90
69247;BME280;56358;56.328;43.992;2023-01-26T05:59:34;101011.19;;;-2.61;77.83
69247;BME280;56358;56.328;43.992;2023-01-26T06:01:34;101022.44;;;-2.53;77.80
69247;BME280;56358;56.328;43.992;2023-01-26T06:03:35;101024.22;;;-2.53;77.91
69247;BME280;56358;56.328;43.992;2023-01-26T06:05:36;101022.47;;;-2.54;77.68
69247;BME280;56358;56.328;43.992;2023-01-26T06:07:38;101035.56;;;-2.53;77.69
69247;BME280;56358;56.328;43.992;2023-01-26T06:09:39;101018.03;;;-2.52;77.86
69247;BME280;56358;56.328;43.992;2023-01-26T06:11:40;101022.44;;;-2.53;77.86
69247;BME280;56358;56.328;43.992;2023-01-26T06:13:40;101014.59;;;-2.54;77.75
69247;BME280;56358;56.328;43.992;2023-01-26T06:15:41;101028.59;;;-2.55;77.84
69247;BME280;56358;56.328;43.992;2023-01-26T06:17:41;101005.06;;;-2.61;77.68
69247;BME280;56358;56.328;43.992;2023-01-26T06:19:42;101012.06;;;-2.60;77.79
69247;BME280;56358;56.328;43.992;2023-01-26T06:21:43;101020.66;;;-2.52;77.80
69247;BME280;56358;56.328;43.992;2023-01-26T06:23:44;101022.28;;;-2.42;77.51
69247;BME280;56358;56.328;43.992;2023-01-26T06:25:44;101023.19;;;-2.44;77.48
69247;BME280;56358;56.328;43.992;2023-01-26T06:27:45;101023.19;;;-2.44;77.40
69247;BME280;56358;56.328;43.992;2023-01-26T06:29:46;101025.81;;;-2.44;77.38
69247;BME280;56358;56.328;43.992;2023-01-26T06:31:47;101028.38;;;-2.40;77.21
69247;BME280;56358;56.328;43.992;2023-01-26T06:33:47;100997.97;;;-2.53;77.17
69247;BME280;56358;56.328;43.992;2023-01-26T06:35:49;101019.72;;;-2.48;76.99
69247;BME280;56358;56.328;43.992;2023-01-26T06:37:49;101038.88;;;-2.38;76.93
69247;BME280;56358;56.328;43.992;2023-01-26T06:39:50;101036.25;;;-2.40;76.81
69247;BME280;56358;56.328;43.992;2023-01-26T06:41:51;100887.88;;;-3.22;76.84
69247;BME280;56358;56.328;43.992;2023-01-26T06:43:52;101051.09;;;-2.39;76.75
69247;BME280;56358;56.328;43.992;2023-01-26T06:45:54;101026.59;;;-2.38;76.85
69247;BME280;56358;56.328;43.992;2023-01-26T06:47:56;101046.75;;;-2.38;76.85
69247;BME280;56358;56.328;43.992;2023-01-26T06:49:56;101057.28;;;-2.40;76.48
69247;BME280;56358;56.328;43.992;2023-01-26T06:51:57;101031.81;;;-2.36;76.51
69247;BME280;56358;56.328;43.992;2023-01-26T06:53:59;101023.97;;;-2.38;76.25
69247;BME280;56358;56.328;43.992;2023-01-26T06:55:59;101030.09;;;-2.37;76.03
69247;BME280;56358;56.328;43.992;2023-01-26T06:58:00;100971.97;;;-2.70;75.96
69247;BME280;56358;56.328;43.992;2023-01-26T07:00:01;101005.84;;;-2.55;75.94
69247;BME280;56358;56.328;43.992;2023-01-26T07:02:08;100996.28;;;-2.59;75.92
69247;BME280;56358;56.328;43.992;2023-01-26T07:04:10;100991.03;;;-2.60;76.11
69247;BME280;56358;56.328;43.992;2023-01-26T07:06:10;101025.84;;;-2.46;76.18
69247;BME280;56358;56.328;43.992;2023-01-26T07:08:11;101023.16;;;-2.43;75.95
69247;BME280;56358;56.328;43.992;2023-01-26T07:10:11;100948.66;;;-2.92;75.67
69247;BME280;56358;56.328;43.992;2023-01-26T07:12:13;100992.78;;;-2.59;75.59
69247;BME280;56358;56.328;43.992;2023-01-26T07:14:14;100958.94;;;-2.78;75.50
69247;BME280;56358;56.328;43.992;2023-01-26T07:16:15;101033.63;;;-2.41;75.52
69247;BME280;56358;56.328;43.992;2023-01-26T07:18:16;100913.84;;;-3.05;75.50
69247;BME280;56358;56.328;43.992;2023-01-26T07:20:17;101010.91;;;-2.42;75.54
69247;BME280;56358;56.328;43.992;2023-01-26T07:22:18;100926.84;;;-2.95;75.22
69247;BME280;56358;56.328;43.992;2023-01-26T07:24:18;101009.22;;;-2.46;75.67
69247;BME280;56358;56.328;43.992;2023-01-26T07:26:21;101001.44;;;-2.53;75.24
69247;BME280;56358;56.328;43.992;2023-01-26T07:28:21;101003.22;;;-2.53;75.48
69247;BME280;56358;56.328;43.992;2023-01-26T07:30:22;101025.00;;;-2.49;75.38
69247;BME280;56358;56.328;43.992;2023-01-26T07:32:23;101029.25;;;-2.39;75.25
69247;BME280;56358;56.328;43.992;2023-01-26T07:34:24;100943.34;;;-2.89;74.80
69247;BME280;56358;56.328;43.992;2023-01-26T07:36:24;101024.97;;;-2.45;75.08
69247;BME280;56358;56.328;43.992;2023-01-26T07:38:26;101044.16;;;-2.40;74.93
69247;BME280;56358;56.328;43.992;2023-01-26T07:40:28;101028.38;;;-2.40;75.00
69247;BME280;56358;56.328;43.992;2023-01-26T07:42:28;101023.09;;;-2.38;75.05
69247;BME280;56358;56.328;43.992;2023-01-26T07:44:30;101021.38;;;-2.39;74.98
69247;BME280;56358;56.328;43.992;2023-01-26T07:46:30;101032.66;;;-2.34;74.50
69247;BME280;56358;56.328;43.992;2023-01-26T07:48:31;101027.47;;;-2.37;74.36
69247;BME280;56358;56.328;43.992;2023-01-26T07:50:33;101023.00;;;-2.32;74.45
69247;BME280;56358;56.328;43.992;2023-01-26T07:52:34;101025.66;;;-2.33;74.56
69247;BME280;56358;56.328;43.992;2023-01-26T07:54:34;101043.94;;;-2.27;74.28
69247;BME280;56358;56.328;43.992;2023-01-26T07:56:35;101036.03;;;-2.26;74.20
69247;BME280;56358;56.328;43.992;2023-01-26T07:58:37;101026.34;;;-2.22;73.98
69247;BME280;56358;56.328;43.992;2023-01-26T08:00:38;100957.91;;;-2.67;73.38
69247;BME280;56358;56.328;43.992;2023-01-26T08:02:39;101031.53;;;-2.17;73.51
69247;BME280;56358;56.328;43.992;2023-01-26T08:04:41;101035.03;;;-2.17;73.24
69247;BME280;56358;56.328;43.992;2023-01-26T08:06:42;101021.13;;;-2.24;73.31
69247;BME280;56358;56.328;43.992;2023-01-26T08:08:43;101031.47;;;-2.14;73.03
69247;BME280;56358;56.328;43.992;2023-01-26T08:10:44;101023.53;;;-2.10;73.00
69247;BME280;56358;56.328;43.992;2023-01-26T08:12:44;101015.53;;;-2.05;72.98
69247;BME280;56358;56.328;43.992;2023-01-26T08:14:45;101029.47;;;-2.00;72.76
69247;BME280;56358;56.328;43.992;2023-01-26T08:16:46;101020.78;;;-2.02;72.43
69247;BME280;56358;56.328;43.992;2023-01-26T08:18:47;100951.34;;;-2.40;72.60
69247;BME280;56358;56.328;43.992;2023-01-26T08:20:49;101030.31;;;-1.96;72.62
69247;BME280;56358;56.328;43.992;2023-01-26T08:22:50;100968.75;;;-2.33;72.45
69247;BME280;56358;56.328;43.992;2023-01-26T08:24:50;101020.69;;;-1.97;72.48
69247;BME280;56358;56.328;43.992;2023-01-26T08:26:51;101010.25;;;-2.02;72.47
69247;BME280;56358;56.328;43.992;2023-01-26T08:28:52;101016.34;;;-2.00;72.44
69247;BME280;56358;56.328;43.992;2023-01-26T08:30:52;100951.34;;;-2.40;72.38
69247;BME280;56358;56.328;43.992;2023-01-26T08:32:53;101011.06;;;-1.97;73.05
69247;BME280;56358;56.328;43.992;2023-01-26T08:34:53;101009.25;;;-1.95;72.28
69247;BME280;56358;56.328;43.992;2023-01-26T08:36:54;100930.47;;;-2.46;72.15
69247;BME280;56358;56.328;43.992;2023-01-26T08:38:55;100998.91;;;-2.04;71.98
69247;BME280;56358;56.328;43.992;2023-01-26T08:40:55;100996.97;;;-1.93;72.41
69247;BME280;56358;56.328;43.992;2023-01-26T08:42:59;100986.50;;;-1.97;71.98
69247;BME280;56358;56.328;43.992;2023-01-26T08:44:59;100998.78;;;-1.96;71.90
69247;BME280;56358;56.328;43.992;2023-01-26T08:47:00;100996.97;;;-1.94;71.88
69247;BME280;56358;56.328;43.992;2023-01-26T08:49:00;100993.50;;;-1.96;71.97
69247;BME280;56358;56.328;43.992;2023-01-26T08:51:03;100996.97;;;-1.94;72.24
69247;BME280;56358;56.328;43.992;2023-01-26T08:53:04;100996.91;;;-1.90;72.21
69247;BME280;56358;56.328;43.992;2023-01-26T08:55:05;100996.03;;;-1.92;71.51
69247;BME280;56358;56.328;43.992;2023-01-26T08:57:05;100986.66;;;-2.04;71.57
69247;BME280;56358;56.328;43.992;2023-01-26T08:59:06;100967.56;;;-2.15;71.66
69247;BME280;56358;56.328;43.992;2023-01-26T09:01:10;100977.00;;;-2.03;71.66
69247;BME280;56358;56.328;43.992;2023-01-26T09:03:11;100978.75;;;-2.04;71.85
69247;BME280;56358;56.328;43.992;2023-01-26T09:05:12;100979.75;;;-2.11;71.90
69247;BME280;56358;56.328;43.992;2023-01-26T09:07:13;100972.69;;;-2.07;71.96
69247;BME280;56358;56.328;43.992;2023-01-26T09:09:13;100965.00;;;-2.18;72.17
69247;BME280;56358;56.328;43.992;2023-01-26T09:11:14;100990.28;;;-2.12;71.95
69247;BME280;56358;56.328;43.992;2023-01-26T09:13:15;100992.13;;;-2.17;72.21
69247;BME280;56358;56.328;43.992;2023-01-26T09:15:16;100975.56;;;-2.23;71.79
69247;BME280;56358;56.328;43.992;2023-01-26T09:17:16;100898.44;;;-2.68;72.14
69247;BME280;56358;56.328;43.992;2023-01-26T09:19:17;100989.53;;;-2.19;72.31
69247;BME280;56358;56.328;43.992;2023-01-26T09:21:18;100985.13;;;-2.19;71.84
69247;BME280;56358;56.328;43.992;2023-01-26T09:23:19;100979.88;;;-2.19;72.10
69247;BME280;56358;56.328;43.992;2023-01-26T09:25:20;100977.25;;;-2.19;71.84
69247;BME280;56358;56.328;43.992;2023-01-26T09:27:21;100943.53;;;-2.43;71.97
69247;BME280;56358;56.328;43.992;2023-01-26T09:29:21;100978.16;;;-2.20;71.76
69247;BME280;56358;56.328;43.992;2023-01-26T09:31:22;100974.59;;;-2.15;71.96
69247;BME280;56358;56.328;43.992;2023-01-26T09:33:23;100985.19;;;-2.22;71.59
69247;BME280;56358;56.328;43.992;2023-01-26T09:35:26;100992.25;;;-2.24;71.76
69247;BME280;56358;56.328;43.992;2023-01-26T09:37:27;100980.84;;;-2.24;71.64
69247;BME280;56358;56.328;43.992;2023-01-26T09:39:27;100973.94;;;-2.30;71.98
69247;BME280;56358;56.328;43.992;2023-01-26T09:41:42;100976.53;;;-2.28;71.92
69247;BME280;56358;56.328;43.992;2023-01-26T09:43:50;100980.81;;;-2.23;71.90
69247;BME280;56358;56.328;43.992;2023-01-26T09:48:21;100966.13;;;-2.34;71.40
69247;BME280;56358;56.328;43.992;2023-01-26T09:50:53;100959.28;;;-2.43;71.64
69247;BME280;56358;56.328;43.992;2023-01-26T09:53:01;100979.16;;;-2.28;71.72
69247;BME280;56358;56.328;43.992;2023-01-26T09:55:07;100973.13;;;-2.33;71.89
69247;BME280;56358;56.328;43.992;2023-01-26T09:57:14;100972.38;;;-2.42;71.65
69247;BME280;56358;56.328;43.992;2023-01-26T10:01:50;100989.91;;;-2.42;72.02
69247;BME280;56358;56.328;43.992;2023-01-26T10:04:01;100979.41;;;-2.42;72.39
69247;BME280;56358;56.328;43.992;2023-01-26T10:06:25;100924.00;;;-2.80;72.04
69247;BME280;56358;56.328;43.992;2023-01-26T10:08:27;100991.59;;;-2.38;72.00
69247;BME280;56358;56.328;43.992;2023-01-26T10:10:33;100987.16;;;-2.36;71.83
69247;BME280;56358;56.328;43.992;2023-01-26T10:12:35;100977.59;;;-2.40;72.10
69247;BME280;56358;56.328;43.992;2023-01-26T10:14:42;100932.50;;;-2.64;71.98
69247;BME280;56358;56.328;43.992;2023-01-26T10:16:48;100976.72;;;-2.39;71.61
69247;BME280;56358;56.328;43.992;2023-01-26T10:19:03;100832.03;;;-3.28;71.55
69247;BME280;56358;56.328;43.992;2023-01-26T10:21:06;100977.72;;;-2.48;71.72
69247;BME280;56358;56.328;43.992;2023-01-26T10:25:28;100992.59;;;-2.47;71.92
69247;BME280;56358;56.328;43.992;2023-01-26T10:27:32;100998.75;;;-2.49;71.55
69247;BME280;56358;56.328;43.992;2023-01-26T10:29:33;100986.59;;;-2.55;71.38
69247;BME280;56358;56.328;43.992;2023-01-26T10:31:33;100980.53;;;-2.57;71.58
69247;BME280;56358;56.328;43.992;2023-01-26T10:33:35;100990.22;;;-2.62;71.70
69247;BME280;56358;56.328;43.992;2023-01-26T10:35:36;100947.47;;;-2.72;71.98
69247;BME280;56358;56.328;43.992;2023-01-26T10:37:37;100865.94;;;-3.17;71.87
69247;BME280;56358;56.328;43.992;2023-01-26T10:39:59;100903.19;;;-2.94;71.42
69247;BME280;56358;56.328;43.992;2023-01-26T10:42:02;100970.88;;;-2.57;71.43
69247;BME280;56358;56.328;43.992;2023-01-26T10:46:26;100972.56;;;-2.53;71.77
69247;BME280;56358;56.328;43.992;2023-01-26T10:48:27;100938.72;;;-2.71;72.00
69247;BME280;56358;56.328;43.992;2023-01-26T10:50:28;100975.13;;;-2.49;71.80
69247;BME280;56358;56.328;43.992;2023-01-26T10:52:31;100908.22;;;-2.78;71.88